Latest Coastal Weather Observations for Croker Island Airport

IDD60701

Issued at 8:31 pm CST Saturday 22 February 2020 (issued every 10 minutes, with the page automatically refreshed every 10 minutes)

About coastal observations | Map of coastal stations | Coastal observations for NT | Marine services | Other Formats
Station Details ID: 014308 Name: CROKER ISLAND AIRPORT Lat: -11.16 Lon: 132.48 Height: 9.2 m
Data from the previous 72 hours. | See also: Recent months at Croker Island Airport
Date/Time
CST
Wind Sea
Height
m
Swell Vis
km
Cloud Weather Temp
°C
Press
hPa
Rain since
9am
mm
Dir  Spd
kts
Gust
kts
Height
m
Period
s
Dir
22/08:30pm WNW 12 17 - - - - - - - 29.1 1006.9 35.6
22/08:00pm WNW 11 16 - - - - - - - 29.1 1006.8 35.6
22/07:30pm WNW 11 15 - - - - - - - 29.0 1006.3 35.6
22/07:00pm WNW 9 14 - - - - - - - 29.0 1005.8 35.6
22/06:30pm NW 7 11 - - - - - - - 28.9 1005.6 35.6
22/06:00pm NW 6 9 - - - - - - - 28.4 1005.3 35.6
22/05:30pm NNW 7 11 - - - - - - - 28.1 1005.2 35.6
22/05:00pm NW 6 11 - - - - - - - 28.6 1005.4 35.6
22/04:30pm NW 5 8 - - - - - - - 28.4 1005.7 35.6
22/04:00pm WNW 4 6 - - - - - - - 27.8 1006.0 35.6
22/03:30pm NW 4 5 - - - - - - - 26.9 1006.3 35.6
22/03:00pm NW 4 5 - - - - - - - 26.4 1006.2 35.6
22/02:30pm NW 4 5 - - - - - - - 25.7 1006.6 35.6
22/02:00pm CALM 0 1 - - - - - - - 24.9 1007.2 35.6
22/01:30pm W 4 8 - - - - - - - 24.3 1008.2 35.6
22/01:00pm SW 1 4 - - - - - - - 23.3 1009.1 35.6
22/12:30pm SW 5 8 - - - - - - - 23.8 1009.9 35.0
22/12:00pm SSE 9 22 - - - - - - Rain 23.8 1010.0 25.4
22/11:30am SSE 9 16 - - - - - - - 24.0 1010.6 12.8
22/11:13am ESE 10 19 - - - - - - - 25.3 1010.7 0.2
22/11:00am WSW 7 10 - - - - - - - 30.3 1009.7 0.2
22/10:30am W 9 14 - - - - - - - 30.6 1008.6 0.2
22/10:00am WSW 8 11 - - - - - - - 30.4 1008.8 0.2
22/09:30am WSW 9 12 - - - - - - - 29.8 1009.0 0.0
22/09:00am WSW 9 14 - - - - - - - 29.3 1008.8 8.0
22/08:30am WSW 8 11 - - - - - - - 28.7 1008.4 8.0
22/08:00am W 8 12 - - - - - - - 28.0 1008.1 8.0
22/07:30am WSW 7 12 - - - - - - - 27.4 1007.8 8.0
22/07:00am WSW 8 13 - - - - - - - 27.1 1007.6 8.0
22/06:30am WSW 10 14 - - - - - - - 27.2 1007.5 8.0
22/06:00am WSW 9 13 - - - - - - - 27.1 1007.3 8.0
22/05:30am WSW 10 14 - - - - - - - 27.4 1007.0 8.0
22/05:00am WSW 8 12 - - - - - - - 27.2 1006.7 8.0
22/04:30am SW 6 9 - - - - - - - 26.8 1006.6 8.0
22/04:00am WSW 8 14 - - - - - - - 26.9 1006.5 8.0
22/03:30am WSW 6 8 - - - - - - - 26.5 1006.5 8.0
22/03:00am WSW 6 9 - - - - - - - 26.3 1006.8 8.0
22/02:30am WSW 6 9 - - - - - - - 26.2 1007.4 8.0
22/02:00am WSW 8 11 - - - - - - - 26.2 1008.0 8.0
22/01:30am WSW 7 11 - - - - - - - 26.2 1008.5 8.0
22/01:00am WSW 8 11 - - - - - - - 26.5 1009.0 8.0
22/12:30am WSW 6 9 - - - - - - - 26.3 1008.9 8.0
22/12:00am W 5 6 - - - - - - - 26.5 1008.7 8.0
 
Date/Time
CST
Wind Sea
Height
m
Swell Vis
km
Cloud Weather Temp
°C
Press
hPa
Rain since
9am
mm
Dir  Spd
kts
Gust
kts
Height
m
Period
s
Dir
21/11:30pm W 6 9 - - - - - - - 26.4 1008.5 8.0
21/11:00pm WSW 8 12 - - - - - - - 25.6 1009.3 8.0
21/10:30pm SW 7 10 - - - - - - - 25.2 1009.7 8.0
21/10:00pm S 4 7 - - - - - - - 24.6 1009.1 8.0
21/09:30pm S 6 9 - - - - - - - 24.8 1009.1 7.8
21/09:00pm SSE 7 12 - - - - - - Rain 24.4 1008.8 7.8
21/08:30pm SSE 11 17 - - - - - - - 24.2 1009.0 7.0
21/08:00pm SSE 14 21 - - - - - - - 24.3 1008.8 4.8
21/07:30pm SSE 18 26 - - - - - - - 25.1 1008.7 1.2
21/07:20pm S 11 27 - - - - - - - 27.3 1008.3 0.2
21/07:00pm SSW 5 8 - - - - - - - 29.3 1007.1 0.2
21/06:30pm SSW 5 8 - - - - - - - 29.5 1006.7 0.2
21/06:00pm WSW 5 7 - - - - - - - 29.7 1006.3 0.2
21/05:30pm SW 5 7 - - - - - - - 30.0 1005.8 0.2
21/05:00pm WSW 7 10 - - - - - - - 30.2 1005.9 0.2
21/04:30pm WNW 5 7 - - - - - - - 29.7 1005.9 0.2
21/04:00pm W 8 12 - - - - - - - 29.8 1005.8 0.2
21/03:30pm WSW 8 13 - - - - - - - 29.8 1006.2 0.2
21/03:00pm W 6 9 - - - - - - - 30.1 1006.3 0.2
21/02:30pm WSW 5 7 - - - - - - - 30.2 1006.8 0.2
21/02:00pm W 5 7 - - - - - - - 29.3 1007.4 0.2
21/01:30pm WSW 4 6 - - - - - - - 29.2 1007.8 0.2
21/01:00pm SW 5 8 - - - - - - - 28.5 1007.9 0.0
21/12:30pm W 6 9 - - - - - - - 27.9 1008.3 0.0
21/12:00pm SW 2 4 - - - - - - - 28.1 1009.1 0.0
21/11:30am SW 5 7 - - - - - - - 28.1 1009.1 0.0
21/11:00am WSW 4 6 - - - - - - - 28.9 1009.1 0.0
21/10:30am SSW 5 8 - - - - - - - 28.2 1009.4 0.0
21/10:00am SW 3 6 - - - - - - - 28.3 1009.3 0.0
21/09:30am SSW 5 7 - - - - - - - 27.8 1009.3 0.0
21/09:00am SSW 5 8 - - - - - - - 27.4 1008.9 14.0
21/08:30am S 7 9 - - - - - - - 27.2 1008.2 14.0
21/08:00am SW 4 9 - - - - - - - 28.4 1007.3 14.0
21/07:30am W 11 14 - - - - - - - 28.0 1006.5 14.0
21/07:00am W 12 16 - - - - - - - 27.7 1005.8 14.0
21/06:30am W 13 19 - - - - - - - 27.5 1005.3 14.0
21/06:00am W 14 19 - - - - - - - 27.0 1005.0 14.0
21/05:30am W 13 18 - - - - - - - 27.2 1005.5 14.0
21/05:00am WNW 11 15 - - - - - - - 26.7 1006.1 14.0
21/04:30am W 11 15 - - - - - - - 26.1 1006.7 14.0
21/04:00am W 11 16 - - - - - - - 25.9 1007.0 14.0
21/03:30am W 10 14 - - - - - - - 25.7 1007.2 13.8
21/03:00am WSW 11 15 - - - - - - Recent precip. 25.5 1007.4 13.8
21/02:30am SW 9 14 - - - - - - - 25.3 1007.5 13.6
21/02:00am SW 8 13 - - - - - - - 25.1 1008.0 13.6
21/01:30am SW 8 12 - - - - - - - 25.2 1008.6 13.6
21/01:00am WSW 10 14 - - - - - - - 24.9 1009.0 13.4
21/12:30am WSW 7 12 - - - - - - - 24.7 1009.3 12.6
21/12:00am SSW 7 11 - - - - - - Rain 24.6 1009.8 11.2
 
Date/Time
CST
Wind Sea
Height
m
Swell Vis
km
Cloud Weather Temp
°C
Press
hPa
Rain since
9am
mm
Dir  Spd
kts
Gust
kts
Height
m
Period
s
Dir
20/11:30pm S 10 14 - - - - - - - 24.7 1009.6 10.6
20/11:00pm S 13 18 - - - - - - - 24.7 1009.9 6.6
20/10:30pm SW 18 26 - - - - - - - 25.4 1010.0 4.0
20/10:21pm WSW 19 25 - - - - - - - 25.9 1009.5 4.0
20/10:00pm WNW 16 23 - - - - - - - 26.8 1009.1 3.8
20/09:30pm WNW 12 18 - - - - - - - 26.6 1008.6 3.8
20/09:00pm WNW 10 15 - - - - - - Rain 27.0 1008.4 3.4
20/08:30pm WNW 10 16 - - - - - - - 28.1 1007.8 0.4
20/08:00pm WNW 8 11 - - - - - - - 28.7 1007.4 0.0
20/07:30pm WNW 12 16 - - - - - - - 28.9 1007.4 0.0
20/07:00pm WNW 11 16 - - - - - - - 29.0 1006.8 0.0
20/06:30pm WNW 8 12 - - - - - - - 29.0 1006.1 0.0
20/06:00pm NW 8 13 - - - - - - - 29.2 1005.5 0.0
20/05:30pm WNW 9 13 - - - - - - - 29.8 1005.1 0.0
20/05:00pm NW 9 12 - - - - - - - 29.6 1005.0 0.0
20/04:30pm WNW 8 13 - - - - - - - 30.2 1005.0 0.0
20/04:00pm NW 7 11 - - - - - - - 30.5 1005.4 0.0
20/03:30pm NW 6 8 - - - - - - - 29.3 1006.0 0.0
20/03:00pm NW 6 9 - - - - - - - 29.4 1006.5 0.0
20/02:30pm WNW 5 8 - - - - - - - 30.8 1006.8 0.0
20/02:00pm WNW 5 7 - - - - - - - 29.6 1007.0 0.0
20/01:30pm NW 5 7 - - - - - - - 29.3 1007.0 0.0
20/01:00pm WNW 4 6 - - - - - - - 29.7 1007.2 0.0
20/12:30pm WNW 2 4 - - - - - - - 30.1 1007.8 0.0
20/12:00pm WNW 4 7 - - - - - - - 29.5 1007.9 0.0
20/11:30am W 3 5 - - - - - - - 29.6 1007.7 0.0
20/11:00am WSW 4 7 - - - - - - - 29.6 1007.9 0.0
20/10:30am WSW 5 8 - - - - - - - 28.9 1007.9 0.0
20/10:00am SW 5 7 - - - - - - - 28.6 1008.1 0.0
20/09:30am SW 3 6 - - - - - - - 28.4 1008.3 0.0
20/09:00am WSW 5 7 - - - - - - - 27.9 1008.2 2.2
20/08:30am W 6 9 - - - - - - - 27.7 1007.9 2.2
20/08:00am W 7 11 - - - - - - - 27.4 1007.2 2.2
20/07:30am W 7 10 - - - - - - - 27.3 1006.5 2.2
20/07:00am WSW 7 10 - - - - - - - 27.3 1006.0 2.2
20/06:30am WSW 9 13 - - - - - - - 27.4 1005.6 2.2
20/06:00am WSW 11 15 - - - - - - - 27.4 1005.6 2.2
20/05:30am WSW 10 14 - - - - - - - 27.1 1005.7 2.2
20/05:00am WSW 10 15 - - - - - - - 26.9 1006.0 2.2
20/04:30am SW 8 13 - - - - - - - 26.7 1005.7 2.2
20/04:00am WSW 11 15 - - - - - - - 26.3 1005.7 2.2
20/03:30am WSW 9 14 - - - - - - - 25.9 1005.5 2.2
20/03:00am SW 6 9 - - - - - - - 25.9 1005.2 2.2
20/02:30am SSE 4 7 - - - - - - - 25.3 1005.3 2.2
20/02:00am S 7 13 - - - - - - - 25.4 1006.4 2.2
20/01:30am SSW 10 15 - - - - - - - 25.3 1007.2 2.2
20/01:00am SSW 10 13 - - - - - - - 25.2 1007.5 2.2
20/12:30am S 10 13 - - - - - - - 25.0 1007.8 2.0
20/12:00am SSW 13 17 - - - - - - Recent precip. 25.2 1008.6 2.0
 
Date/Time
CST
Wind Sea
Height
m
Swell Vis
km
Cloud Weather Temp
°C
Press
hPa
Rain since
9am
mm
Dir  Spd
kts
Gust
kts
Height
m
Period
s
Dir
19/11:30pm SSW 15 21 - - - - - - - 25.6 1008.7 2.0
19/11:00pm W 12 18 - - - - - - - 29.0 1008.0 1.2
19/10:30pm WNW 11 15 - - - - - - - 29.5 1007.6 1.2
19/10:00pm WNW 9 13 - - - - - - - 29.5 1007.4 1.2
19/09:30pm WNW 9 13 - - - - - - - 29.6 1007.2 1.2
19/09:00pm WNW 9 13 - - - - - - - 29.6 1006.7 1.2

Other formats

Comma delimited format used in spreadsheet applications
http://www.bom.gov.au/fwo/IDD60701/IDD60701.94108.axf

JavaScript Object Notation format (JSON) in row-major order
http://www.bom.gov.au/fwo/IDD60701/IDD60701.94108.json

Data quality

Most of these data are generated automatically and are frequently updated. Quality checks on data are not normally performed. It is possible for incorrect values to appear. Refer to information at About Latest Weather Observations and please check the disclaimer before using these data.